Time;durP1;ratioP1;P1;durP2;ratioP2;P2;SDS_P1;SDS_P2;PMS_P1;PMS_P2;Temp;Humidity;BMP_temperature;BMP_pressure;BME280_temperature;BME280_humidity;BME280_pressure;Samples;Min_cycle;Max_cycle;Signal;HPM_P1;HPM_P2
2021/07/19 00:00:53;;;;;;;5.95;4.50;;;;;;;;;;3584715;40;20041;-59
2021/07/19 00:03:18;;;;;;;6.85;4.57;;;;;;;;;;3584131;40;20050;-59
2021/07/19 00:05:44;;;;;;;6.25;4.03;;;;;;;;;;3583861;40;20476;-59
2021/07/19 00:08:09;;;;;;;11.82;4.30;;;;;;;;;;3584298;40;20036;-59
2021/07/19 00:10:35;;;;;;;14.57;4.80;;;;;;;;;;3584821;40;20040;-59
2021/07/19 00:13:00;;;;;;;6.07;4.47;;;;;;;;;;3582388;40;20068;-59
2021/07/19 00:15:28;;;;;;;13.25;4.72;;;;;;;;;;3584572;40;20052;-59
2021/07/19 00:17:54;;;;;;;6.57;4.13;;;;;;;;;;3582393;40;20072;-60
2021/07/19 00:20:20;;;;;;;5.35;4.53;;;;;;;;;;3582121;40;20046;-59
2021/07/19 00:22:46;;;;;;;6.38;4.35;;;;;;;;;;3582786;40;20451;-58
2021/07/19 00:25:14;;;;;;;9.43;4.68;;;;;;;;;;3581974;40;20354;-58
2021/07/19 00:27:44;;;;;;;9.00;4.50;;;;;;;;;;3583778;40;20035;-58
2021/07/19 00:30:11;;;;;;;7.57;4.90;;;;;;;;;;3582882;40;20048;-59
2021/07/19 00:32:38;;;;;;;6.60;3.97;;;;;;;;;;3581611;40;20129;-58
2021/07/19 00:35:05;;;;;;;5.90;4.13;;;;;;;;;;3584907;40;20170;-58
2021/07/19 00:37:31;;;;;;;5.47;4.00;;;;;;;;;;3584316;40;20271;-58
2021/07/19 00:39:56;;;;;;;5.30;3.97;;;;;;;;;;3571745;40;20048;-58
2021/07/19 00:42:22;;;;;;;8.65;4.53;;;;;;;;;;3581547;40;20130;-58
2021/07/19 00:44:48;;;;;;;9.70;5.38;;;;;;;;;;3576880;40;20323;-58
2021/07/19 00:47:15;;;;;;;7.78;4.50;;;;;;;;;;3584123;40;20071;-58
2021/07/19 00:49:43;;;;;;;8.25;4.38;;;;;;;;;;3581949;40;20041;-58
2021/07/19 00:52:09;;;;;;;5.35;4.45;;;;;;;;;;3580834;40;20056;-58
2021/07/19 00:54:36;;;;;;;7.22;4.57;;;;;;;;;;3583717;40;20127;-59
2021/07/19 00:57:02;;;;;;;6.72;4.28;;;;;;;;;;3582794;40;20028;-59
2021/07/19 00:59:30;;;;;;;11.48;5.03;;;;;;;;;;3583582;40;20037;-59
2021/07/19 01:01:56;;;;;;;6.93;4.93;;;;;;;;;;3583301;40;20122;-59
2021/07/19 01:04:24;;;;;;;7.47;4.78;;;;;;;;;;3580988;40;20032;-59
2021/07/19 01:06:53;;;;;;;9.43;4.78;;;;;;;;;;3582584;40;20419;-59
2021/07/19 01:09:20;;;;;;;7.93;4.13;;;;;;;;;;3583706;40;20049;-59
2021/07/19 01:11:47;;;;;;;13.65;4.90;;;;;;;;;;3582520;40;20044;-59
2021/07/19 01:14:13;;;;;;;8.10;4.78;;;;;;;;;;3581011;40;20076;-59
2021/07/19 01:16:39;;;;;;;11.32;5.57;;;;;;;;;;3580926;40;20663;-59
2021/07/19 01:19:05;;;;;;;7.70;4.53;;;;;;;;;;3582450;40;20037;-59
2021/07/19 01:21:45;;;;;;;9.57;4.30;;;;;;;;;;3583002;40;20294;-59
2021/07/19 01:24:17;;;;;;;;;;;;;;;;;;3583437;40;20065;-59
2021/07/19 01:26:42;;;;;;;6.38;3.65;;;;;;;;;;3582776;40;20058;-59
2021/07/19 01:29:09;;;;;;;8.52;3.67;;;;;;;;;;3583673;40;20052;-59
2021/07/19 01:31:42;;;;;;;8.07;3.83;;;;;;;;;;3577132;40;20037;-59
2021/07/19 01:34:12;;;;;;;4.95;3.67;;;;;;;;;;3584305;40;20346;-59
2021/07/19 01:36:52;;;;;;;6.65;4.07;;;;;;;;;;3582471;40;20033;-59
2021/07/19 01:39:18;;;;;;;6.10;3.45;;;;;;;;;;3582467;40;20051;-59
2021/07/19 01:41:45;;;;;;;8.63;3.72;;;;;;;;;;3583283;40;20032;-59
2021/07/19 01:44:12;;;;;;;6.38;4.40;;;;;;;;;;3583375;40;20037;-59
2021/07/19 01:46:39;;;;;;;5.07;4.28;;;;;;;;;;3583573;40;20040;-59
2021/07/19 01:49:07;;;;;;;4.82;3.80;;;;;;;;;;3583316;40;20085;-59
2021/07/19 01:51:32;;;;;;;9.68;4.10;;;;;;;;;;3584478;40;20048;-59
2021/07/19 01:54:00;;;;;;;7.97;4.40;;;;;;;;;;3583770;40;20037;-59
2021/07/19 01:56:27;;;;;;;8.70;4.38;;;;;;;;;;3582519;40;20049;-59
2021/07/19 01:58:56;;;;;;;9.35;6.00;;;;;;;;;;3582054;40;20052;-59
2021/07/19 02:01:22;;;;;;;12.48;6.63;;;;;;;;;;3582463;40;20451;-59
2021/07/19 02:03:47;;;;;;;6.43;4.75;;;;;;;;;;3583715;40;20044;-59
2021/07/19 02:06:13;;;;;;;9.23;8.00;;;;;;;;;;3582572;40;20396;-59
2021/07/19 02:08:39;;;;;;;10.40;5.80;;;;;;;;;;3581622;40;20311;-59
2021/07/19 02:11:07;;;;;;;5.78;5.18;;;;;;;;;;3583479;40;20028;-59
2021/07/19 02:13:34;;;;;;;9.40;6.15;;;;;;;;;;3584318;40;20246;-59
2021/07/19 02:16:01;;;;;;;10.82;6.82;;;;;;;;;;3578812;40;20178;-59
2021/07/19 02:18:27;;;;;;;6.18;5.05;;;;;;;;;;3582852;40;20052;-59
2021/07/19 02:20:55;;;;;;;6.93;5.10;;;;;;;;;;3582145;40;20029;-59
2021/07/19 02:23:22;;;;;;;6.45;5.07;;;;;;;;;;3582290;40;20051;-59
2021/07/19 02:25:53;;;;;;;5.50;4.88;;;;;;;;;;3580903;40;20036;-59
2021/07/19 02:28:19;;;;;;;6.50;5.10;;;;;;;;;;3582062;40;20033;-59
2021/07/19 02:30:45;;;;;;;7.35;4.85;;;;;;;;;;3581060;40;20033;-59
2021/07/19 02:33:12;;;;;;;7.28;4.47;;;;;;;;;;3573206;40;20029;-59
2021/07/19 02:35:41;;;;;;;8.15;5.28;;;;;;;;;;3575780;40;20045;-59
2021/07/19 02:38:10;;;;;;;5.63;3.70;;;;;;;;;;3580767;40;20051;-59
2021/07/19 02:40:37;;;;;;;6.30;3.97;;;;;;;;;;3582326;40;20118;-59
2021/07/19 02:43:05;;;;;;;6.22;3.85;;;;;;;;;;3580123;40;20085;-59
2021/07/19 02:45:37;;;;;;;10.52;4.60;;;;;;;;;;3582890;40;20024;-59
2021/07/19 02:48:05;;;;;;;9.50;4.78;;;;;;;;;;3580693;40;20037;-59
2021/07/19 02:50:31;;;;;;;7.72;3.90;;;;;;;;;;3581944;40;20043;-59
2021/07/19 02:52:59;;;;;;;11.27;4.53;;;;;;;;;;3580874;40;20037;-59
2021/07/19 02:55:27;;;;;;;6.10;4.50;;;;;;;;;;3574637;40;20037;-59
2021/07/19 02:57:53;;;;;;;5.63;4.05;;;;;;;;;;3581864;40;20392;-59
2021/07/19 03:00:18;;;;;;;6.57;4.38;;;;;;;;;;3581467;40;20032;-59
2021/07/19 03:02:51;;;;;;;6.25;4.93;;;;;;;;;;3582539;40;20021;-59
2021/07/19 03:05:20;;;;;;;4.97;3.95;;;;;;;;;;3583047;40;20605;-59
2021/07/19 03:07:52;;;;;;;6.78;4.35;;;;;;;;;;3582906;40;20039;-59
2021/07/19 03:10:22;;;;;;;6.90;3.53;;;;;;;;;;3581978;40;20116;-59
2021/07/19 03:12:48;;;;;;;11.40;3.95;;;;;;;;;;3583001;40;20053;-59
2021/07/19 03:15:14;;;;;;;7.45;4.00;;;;;;;;;;3580441;40;20347;-60
2021/07/19 03:17:41;;;;;;;7.75;5.72;;;;;;;;;;3582862;40;20064;-60
2021/07/19 03:20:09;;;;;;;9.07;7.80;;;;;;;;;;3582464;40;20386;-60
2021/07/19 03:22:39;;;;;;;9.90;6.38;;;;;;;;;;3580357;40;20080;-60
2021/07/19 03:25:08;;;;;;;7.23;5.27;;;;;;;;;;3579834;40;20192;-60
2021/07/19 03:27:36;;;;;;;7.07;5.35;;;;;;;;;;3582271;40;20040;-60
2021/07/19 03:30:12;;;;;;;7.97;6.75;;;;;;;;;;3581025;40;20276;-60
2021/07/19 03:32:38;;;;;;;7.10;6.32;;;;;;;;;;3582315;40;20036;-60
2021/07/19 03:35:05;;;;;;;6.00;5.40;;;;;;;;;;3583078;40;20041;-60
2021/07/19 03:37:31;;;;;;;7.53;6.88;;;;;;;;;;3582978;40;20133;-60
2021/07/19 03:39:58;;;;;;;6.35;5.10;;;;;;;;;;3583143;40;20056;-60
2021/07/19 03:42:24;;;;;;;9.15;5.72;;;;;;;;;;3583111;40;20040;-60
2021/07/19 03:44:51;;;;;;;7.95;5.55;;;;;;;;;;3582993;40;20040;-60
2021/07/19 03:47:18;;;;;;;8.95;5.95;;;;;;;;;;3572477;40;20060;-60
2021/07/19 03:49:46;;;;;;;7.10;5.43;;;;;;;;;;3584281;40;20163;-60
2021/07/19 03:52:12;;;;;;;6.38;4.82;;;;;;;;;;3584008;40;20031;-60
2021/07/19 03:54:38;;;;;;;6.20;4.10;;;;;;;;;;3582164;40;20079;-60
2021/07/19 03:57:04;;;;;;;5.75;4.50;;;;;;;;;;3577591;40;20033;-60
2021/07/19 03:59:32;;;;;;;5.50;3.80;;;;;;;;;;3582374;40;20036;-60
2021/07/19 04:02:00;;;;;;;8.93;4.63;;;;;;;;;;3582361;40;20118;-60
2021/07/19 04:04:39;;;;;;;13.93;4.57;;;;;;;;;;3583815;40;20029;-61
2021/07/19 04:07:06;;;;;;;6.40;4.38;;;;;;;;;;3582744;40;20033;-60
2021/07/19 04:09:33;;;;;;;7.82;3.78;;;;;;;;;;3581448;40;20765;-60
2021/07/19 04:12:00;;;;;;;8.27;4.55;;;;;;;;;;3581012;40;20024;-60
2021/07/19 04:14:26;;;;;;;6.90;4.75;;;;;;;;;;3583328;40;20219;-60
2021/07/19 04:16:52;;;;;;;7.57;4.07;;;;;;;;;;3583011;40;20065;-60
2021/07/19 04:19:17;;;;;;;8.25;5.53;;;;;;;;;;3584319;40;20087;-60
2021/07/19 04:21:43;;;;;;;6.80;4.50;;;;;;;;;;3581703;40;20308;-60
2021/07/19 04:24:11;;;;;;;5.70;4.75;;;;;;;;;;3583042;40;20043;-60
2021/07/19 04:26:39;;;;;;;8.48;5.00;;;;;;;;;;3580665;40;20129;-60
2021/07/19 04:29:05;;;;;;;11.73;4.60;;;;;;;;;;3582374;40;20115;-60
2021/07/19 04:31:32;;;;;;;10.85;5.15;;;;;;;;;;3582029;40;20099;-60
2021/07/19 04:33:57;;;;;;;5.35;4.70;;;;;;;;;;3582737;40;20055;-60
2021/07/19 04:36:23;;;;;;;6.25;4.65;;;;;;;;;;3583991;40;20041;-60
2021/07/19 04:38:49;;;;;;;7.35;5.05;;;;;;;;;;3582851;40;20122;-60
2021/07/19 04:41:19;;;;;;;6.57;4.78;;;;;;;;;;3580994;40;20044;-60
2021/07/19 04:43:45;;;;;;;10.48;4.68;;;;;;;;;;3582138;40;20296;-61
2021/07/19 04:46:11;;;;;;;5.38;4.22;;;;;;;;;;3583934;40;20047;-60
2021/07/19 04:48:38;;;;;;;6.72;4.47;;;;;;;;;;3582444;40;20360;-61
2021/07/19 04:51:04;;;;;;;5.32;3.83;;;;;;;;;;3571893;40;20134;-60
2021/07/19 04:53:30;;;;;;;11.88;4.63;;;;;;;;;;3580881;40;20031;-60
2021/07/19 04:55:58;;;;;;;6.50;4.45;;;;;;;;;;3582628;40;20073;-60
2021/07/19 04:58:25;;;;;;;10.90;4.28;;;;;;;;;;3583075;40;20040;-60
2021/07/19 05:01:12;;;;;;;14.40;4.93;;;;;;;;;;3582875;40;20264;-60
2021/07/19 05:03:44;;;;;;;7.43;4.90;;;;;;;;;;3582995;40;20032;-60
2021/07/19 05:06:10;;;;;;;6.20;4.43;;;;;;;;;;3582927;40;20266;-60
2021/07/19 05:08:38;;;;;;;11.00;7.10;;;;;;;;;;3575375;40;20051;-60
2021/07/19 05:11:04;;;;;;;6.25;4.15;;;;;;;;;;3583553;40;20482;-60
2021/07/19 05:13:32;;;;;;;7.43;5.38;;;;;;;;;;3585006;40;20049;-60
2021/07/19 05:15:58;;;;;;;8.27;5.68;;;;;;;;;;3582252;40;20377;-60
2021/07/19 05:18:24;;;;;;;9.55;6.18;;;;;;;;;;3583022;40;20052;-60
2021/07/19 05:20:50;;;;;;;14.50;8.95;;;;;;;;;;3574386;40;20291;-61
2021/07/19 05:23:22;;;;;;;9.98;7.93;;;;;;;;;;3582905;40;20044;-62
2021/07/19 05:25:48;;;;;;;8.10;7.38;;;;;;;;;;3581334;40;20248;-60
2021/07/19 05:28:14;;;;;;;9.25;6.55;;;;;;;;;;3582178;40;20044;-60
2021/07/19 05:30:43;;;;;;;6.72;5.93;;;;;;;;;;3581587;40;20065;-60
2021/07/19 05:33:09;;;;;;;8.93;6.43;;;;;;;;;;3582642;40;20273;-60
2021/07/19 05:35:36;;;;;;;7.65;6.28;;;;;;;;;;3581945;40;20048;-60
2021/07/19 05:38:02;;;;;;;9.90;5.47;;;;;;;;;;3580571;40;20029;-60
2021/07/19 05:40:28;;;;;;;9.05;5.65;;;;;;;;;;3580959;40;20423;-60
2021/07/19 05:42:53;;;;;;;15.38;6.78;;;;;;;;;;3583489;40;20036;-60
2021/07/19 05:45:18;;;;;;;10.35;6.45;;;;;;;;;;3583949;40;20033;-60
2021/07/19 05:47:44;;;;;;;8.98;6.65;;;;;;;;;;3573270;40;20048;-60
2021/07/19 05:50:10;;;;;;;8.02;7.22;;;;;;;;;;3577034;40;20032;-60
2021/07/19 05:52:36;;;;;;;8.10;7.15;;;;;;;;;;3584139;40;20077;-60
2021/07/19 05:55:02;;;;;;;7.70;6.95;;;;;;;;;;3582127;40;20090;-60
2021/07/19 05:57:28;;;;;;;11.90;7.60;;;;;;;;;;3583557;40;20044;-60
2021/07/19 05:59:56;;;;;;;7.95;6.13;;;;;;;;;;3581527;40;20785;-60
2021/07/19 06:02:26;;;;;;;8.25;6.55;;;;;;;;;;3573575;40;20051;-60
2021/07/19 06:04:52;;;;;;;7.40;5.88;;;;;;;;;;3582544;40;20125;-60
2021/07/19 06:07:17;;;;;;;8.35;5.88;;;;;;;;;;3582896;40;20037;-58
2021/07/19 06:09:42;;;;;;;8.13;5.93;;;;;;;;;;3582219;40;20110;-58
2021/07/19 06:12:08;;;;;;;8.10;5.15;;;;;;;;;;3582809;40;20074;-58
2021/07/19 06:14:34;;;;;;;9.00;6.60;;;;;;;;;;3584444;40;20086;-58
2021/07/19 06:16:59;;;;;;;7.85;5.35;;;;;;;;;;3583207;40;20044;-58
2021/07/19 06:19:24;;;;;;;10.48;4.97;;;;;;;;;;3581921;40;20130;-58
2021/07/19 06:21:50;;;;;;;7.85;7.05;;;;;;;;;;3580915;40;20041;-58
2021/07/19 06:24:15;;;;;;;9.02;6.40;;;;;;;;;;3582052;40;20056;-58
2021/07/19 06:26:41;;;;;;;6.18;4.57;;;;;;;;;;3582077;40;20121;-58
2021/07/19 06:29:06;;;;;;;9.43;5.35;;;;;;;;;;3582882;40;20036;-58
2021/07/19 06:31:32;;;;;;;7.72;6.38;;;;;;;;;;3582968;40;20036;-58
2021/07/19 06:33:58;;;;;;;10.55;5.25;;;;;;;;;;3582072;40;20117;-58
2021/07/19 06:36:24;;;;;;;6.32;4.68;;;;;;;;;;3582849;40;20051;-58
2021/07/19 06:38:50;;;;;;;11.77;4.85;;;;;;;;;;3583688;40;20053;-57
2021/07/19 06:41:15;;;;;;;9.38;5.53;;;;;;;;;;3581309;40;20111;-58
2021/07/19 06:43:41;;;;;;;7.72;5.95;;;;;;;;;;3576481;40;20043;-58
2021/07/19 06:46:06;;;;;;;14.95;6.28;;;;;;;;;;3583274;40;20036;-58
2021/07/19 06:48:33;;;;;;;10.30;5.53;;;;;;;;;;3582824;40;20695;-58
2021/07/19 06:51:00;;;;;;;9.82;4.82;;;;;;;;;;3580965;40;20081;-58
2021/07/19 06:53:27;;;;;;;8.18;4.82;;;;;;;;;;3581873;40;20044;-58
2021/07/19 06:55:52;;;;;;;9.82;5.53;;;;;;;;;;3571463;40;20044;-58
2021/07/19 06:58:17;;;;;;;8.65;6.03;;;;;;;;;;3580348;40;20061;-58
2021/07/19 07:00:43;;;;;;;9.25;5.10;;;;;;;;;;3582924;40;20032;-58
2021/07/19 07:03:08;;;;;;;6.97;5.60;;;;;;;;;;3581529;40;20048;-58
2021/07/19 07:05:34;;;;;;;8.02;6.75;;;;;;;;;;3581904;40;20032;-58
2021/07/19 07:07:59;;;;;;;10.98;5.70;;;;;;;;;;3582143;40;20031;-58
2021/07/19 07:10:25;;;;;;;7.50;4.63;;;;;;;;;;3582102;40;20047;-57
2021/07/19 07:12:50;;;;;;;8.18;4.82;;;;;;;;;;3582132;40;20039;-58
2021/07/19 07:15:16;;;;;;;9.90;5.25;;;;;;;;;;3580329;40;20077;-58
2021/07/19 07:17:41;;;;;;;10.82;5.47;;;;;;;;;;3575134;40;20628;-58
2021/07/19 07:20:10;;;;;;;8.23;6.22;;;;;;;;;;3582098;40;20064;-59
2021/07/19 07:22:35;;;;;;;8.00;5.72;;;;;;;;;;3571974;40;20146;-58
2021/07/19 07:25:01;;;;;;;10.00;5.70;;;;;;;;;;3582318;40;20040;-59
2021/07/19 07:27:26;;;;;;;8.55;5.43;;;;;;;;;;3573704;40;20158;-59
2021/07/19 07:29:52;;;;;;;8.15;5.18;;;;;;;;;;3574621;40;20125;-59
2021/07/19 07:32:17;;;;;;;8.20;4.43;;;;;;;;;;3583142;40;20045;-58
2021/07/19 07:34:43;;;;;;;6.05;4.53;;;;;;;;;;3583846;40;20037;-58
2021/07/19 07:37:12;;;;;;;7.60;5.38;;;;;;;;;;3582451;40;20159;-59
2021/07/19 07:39:39;;;;;;;9.70;4.75;;;;;;;;;;3583888;40;20055;-58
2021/07/19 07:42:04;;;;;;;8.68;5.25;;;;;;;;;;3575671;40;20268;-58
2021/07/19 07:44:30;;;;;;;6.28;4.68;;;;;;;;;;3582361;40;20027;-58
2021/07/19 07:46:56;;;;;;;8.10;4.32;;;;;;;;;;3583122;40;20040;-58
2021/07/19 07:49:21;;;;;;;6.53;4.60;;;;;;;;;;3575536;40;20040;-58
2021/07/19 07:51:47;;;;;;;5.53;4.00;;;;;;;;;;3582159;40;20044;-58
2021/07/19 07:54:12;;;;;;;8.10;4.60;;;;;;;;;;3581989;40;20273;-57
2021/07/19 07:56:38;;;;;;;11.45;5.40;;;;;;;;;;3581685;40;20060;-58
2021/07/19 07:59:03;;;;;;;7.20;5.80;;;;;;;;;;3582331;40;20045;-59
2021/07/19 08:01:29;;;;;;;8.25;4.00;;;;;;;;;;3568800;40;20040;-59
2021/07/19 08:03:55;;;;;;;8.43;4.32;;;;;;;;;;3581993;40;20322;-59
2021/07/19 08:06:20;;;;;;;5.85;3.80;;;;;;;;;;3580862;40;20040;-59
2021/07/19 08:08:46;;;;;;;7.93;4.07;;;;;;;;;;3582356;40;20131;-59
2021/07/19 08:11:11;;;;;;;7.90;4.35;;;;;;;;;;3576981;40;20037;-58
2021/07/19 08:13:37;;;;;;;7.55;4.40;;;;;;;;;;3582863;40;20057;-61
2021/07/19 08:16:02;;;;;;;8.05;5.82;;;;;;;;;;3583134;40;20051;-60
2021/07/19 08:18:28;;;;;;;7.90;4.82;;;;;;;;;;3583534;40;20088;-60
2021/07/19 08:20:53;;;;;;;14.07;5.93;;;;;;;;;;3581426;40;20404;-60
2021/07/19 08:23:19;;;;;;;9.73;4.53;;;;;;;;;;3582483;40;20127;-60
2021/07/19 08:25:44;;;;;;;5.82;3.95;;;;;;;;;;3582232;40;20497;-60
2021/07/19 08:28:10;;;;;;;10.05;5.43;;;;;;;;;;3582080;40;20029;-60
2021/07/19 08:30:35;;;;;;;14.95;5.13;;;;;;;;;;3584195;40;20044;-60
2021/07/19 08:33:01;;;;;;;8.95;4.65;;;;;;;;;;3582961;40;20053;-60
2021/07/19 08:35:27;;;;;;;9.05;5.05;;;;;;;;;;3584294;40;20055;-60
2021/07/19 08:37:57;;;;;;;10.55;6.45;;;;;;;;;;3583942;40;20045;-60
2021/07/19 08:40:24;;;;;;;15.82;6.05;;;;;;;;;;3582548;40;20052;-60
2021/07/19 08:42:49;;;;;;;6.65;4.35;;;;;;;;;;3583379;40;20041;-60
2021/07/19 08:45:15;;;;;;;4.93;3.95;;;;;;;;;;3582799;40;20037;-60
2021/07/19 08:47:43;;;;;;;7.53;6.22;;;;;;;;;;3580961;40;20084;-60
2021/07/19 08:50:11;;;;;;;9.70;4.60;;;;;;;;;;3580738;40;20122;-59
2021/07/19 08:52:38;;;;;;;6.95;4.93;;;;;;;;;;3582923;40;20385;-60
2021/07/19 08:55:08;;;;;;;11.52;4.63;;;;;;;;;;3582025;40;20122;-60
2021/07/19 08:57:34;;;;;;;7.80;4.35;;;;;;;;;;3583625;40;20041;-60
2021/07/19 09:00:04;;;;;;;6.68;3.90;;;;;;;;;;3583978;40;20037;-60
2021/07/19 09:02:30;;;;;;;5.95;4.35;;;;;;;;;;3582378;40;20053;-59
2021/07/19 09:04:56;;;;;;;9.15;4.72;;;;;;;;;;3581160;40;20033;-59
2021/07/19 09:07:22;;;;;;;7.13;4.88;;;;;;;;;;3583453;40;20486;-60
2021/07/19 09:09:51;;;;;;;9.35;4.43;;;;;;;;;;3584012;40;20040;-59
2021/07/19 09:12:17;;;;;;;7.20;4.72;;;;;;;;;;3581245;40;20048;-59
2021/07/19 09:14:47;;;;;;;8.45;4.63;;;;;;;;;;3583345;40;20544;-59
2021/07/19 09:17:27;;;;;;;10.02;4.63;;;;;;;;;;3582806;40;20036;-59
2021/07/19 09:19:54;;;;;;;10.50;4.43;;;;;;;;;;3585059;40;20411;-59
2021/07/19 09:22:32;;;;;;;6.68;4.35;;;;;;;;;;3576611;40;20709;-59
2021/07/19 09:25:06;;;;;;;10.70;4.93;;;;;;;;;;3582834;40;20133;-59
2021/07/19 09:27:32;;;;;;;6.70;4.60;;;;;;;;;;3580891;40;20035;-59
2021/07/19 09:29:57;;;;;;;8.40;4.97;;;;;;;;;;3582115;40;20046;-60
2021/07/19 09:32:23;;;;;;;7.95;5.18;;;;;;;;;;3581963;40;20045;-60
2021/07/19 09:34:49;;;;;;;7.28;4.10;;;;;;;;;;3573557;40;20037;-59
2021/07/19 09:37:15;;;;;;;6.72;4.60;;;;;;;;;;3581866;40;20028;-60
2021/07/19 09:39:40;;;;;;;7.90;4.90;;;;;;;;;;3580914;40;20051;-60
2021/07/19 09:42:27;;;;;;;6.55;4.28;;;;;;;;;;3580054;40;20217;-60
2021/07/19 09:44:57;;;;;;;7.65;4.57;;;;;;;;;;3582412;40;20349;-60
2021/07/19 09:47:40;;;;;;;8.00;4.28;;;;;;;;;;3581802;40;20033;-60
2021/07/19 09:50:15;;;;;;;7.82;6.38;;;;;;;;;;3599338;39;20501;-59
2021/07/19 09:52:42;;;;;;;8.98;5.82;;;;;;;;;;3593143;40;20438;-59
2021/07/19 09:55:28;;;;;;;9.77;5.18;;;;;;;;;;3593289;40;20043;-59
2021/07/19 09:58:01;;;;;;;8.55;5.00;;;;;;;;;;3593471;39;20039;-59
2021/07/19 10:00:29;;;;;;;6.95;4.75;;;;;;;;;;3592753;39;20036;-59
2021/07/19 10:02:54;;;;;;;9.18;4.65;;;;;;;;;;3601028;39;20849;-60
2021/07/19 10:05:28;;;;;;;11.80;5.22;;;;;;;;;;3594207;40;20031;-60
2021/07/19 10:07:55;;;;;;;10.13;5.63;;;;;;;;;;3593960;40;20039;-59
2021/07/19 10:10:40;;;;;;;11.93;5.82;;;;;;;;;;3594242;39;20380;-60
2021/07/19 10:13:08;;;;;;;9.60;6.43;;;;;;;;;;3593485;39;20028;-60
2021/07/19 10:15:36;;;;;;;8.07;6.85;;;;;;;;;;3592672;40;20044;-60
2021/07/19 10:18:08;;;;;;;9.18;6.65;;;;;;;;;;3592773;40;20052;-60
2021/07/19 10:20:34;;;;;;;7.55;5.88;;;;;;;;;;3593580;40;20032;-60
2021/07/19 10:23:00;;;;;;;8.77;7.00;;;;;;;;;;3592763;39;20093;-60
2021/07/19 10:25:25;;;;;;;10.30;6.82;;;;;;;;;;3593621;39;20372;-60
2021/07/19 10:27:51;;;;;;;8.60;6.75;;;;;;;;;;3593808;39;20047;-59
2021/07/19 10:30:17;;;;;;;8.20;6.05;;;;;;;;;;3592782;40;20530;-59
2021/07/19 10:32:42;;;;;;;10.32;7.18;;;;;;;;;;3593503;39;20311;-59
2021/07/19 10:35:09;;;;;;;12.68;7.70;;;;;;;;;;3592910;39;20377;-60
2021/07/19 10:37:36;;;;;;;9.68;7.75;;;;;;;;;;3593688;39;20040;-60
2021/07/19 10:40:05;;;;;;;10.50;8.60;;;;;;;;;;3593519;39;20134;-59
2021/07/19 10:42:35;;;;;;;10.05;8.43;;;;;;;;;;3591707;40;20054;-60
2021/07/19 10:45:15;;;;;;;17.77;7.90;;;;;;;;;;3593469;39;20032;-60
2021/07/19 10:47:54;;;;;;;11.80;8.43;;;;;;;;;;3591673;40;20028;-60
2021/07/19 10:50:27;;;;;;;11.00;8.03;;;;;;;;;;3593414;40;20321;-60
2021/07/19 10:52:58;;;;;;;10.68;8.52;;;;;;;;;;3592588;40;20048;-60
2021/07/19 10:55:36;;;;;;;10.27;8.35;;;;;;;;;;3593505;40;20129;-59
2021/07/19 10:58:07;;;;;;;12.02;8.77;;;;;;;;;;3593357;40;20048;-60
2021/07/19 11:00:41;;;;;;;11.27;9.32;;;;;;;;;;3588808;40;20041;-60
2021/07/19 11:03:16;;;;;;;10.25;8.25;;;;;;;;;;3585733;40;20282;-60
2021/07/19 11:05:44;;;;;;;10.35;8.98;;;;;;;;;;3586395;40;20060;-60
2021/07/19 11:08:26;;;;;;;11.25;8.90;;;;;;;;;;3586545;40;20033;-61
2021/07/19 11:10:57;;;;;;;10.23;8.48;;;;;;;;;;3585485;40;20033;-61
2021/07/19 11:13:34;;;;;;;10.73;8.95;;;;;;;;;;3584361;40;20059;-62
2021/07/19 11:16:12;;;;;;;11.15;8.55;;;;;;;;;;3583784;40;20110;-60
2021/07/19 11:18:37;;;;;;;13.27;8.30;;;;;;;;;;3586331;40;20043;-60
2021/07/19 11:21:04;;;;;;;10.85;9.27;;;;;;;;;;3586046;40;20036;-59
2021/07/19 11:23:34;;;;;;;11.88;9.10;;;;;;;;;;3585731;40;20257;-59
2021/07/19 11:26:03;;;;;;;10.60;9.45;;;;;;;;;;3586322;40;20353;-60
2021/07/19 11:28:30;;;;;;;11.43;8.88;;;;;;;;;;3585960;40;20065;-59
2021/07/19 11:31:05;;;;;;;12.30;8.90;;;;;;;;;;3585486;40;20037;-60
2021/07/19 11:33:40;;;;;;;11.40;9.15;;;;;;;;;;3586310;40;20044;-60
2021/07/19 11:36:39;;;;;;;13.40;10.07;;;;;;;;;;3584841;40;20037;-60
2021/07/19 11:39:15;;;;;;;12.90;9.60;;;;;;;;;;3584473;40;20358;-61
2021/07/19 11:41:40;;;;;;;15.77;11.65;;;;;;;;;;3584521;40;20028;-60
2021/07/19 11:44:17;;;;;;;17.02;10.52;;;;;;;;;;3585207;40;20040;-61
2021/07/19 11:46:44;;;;;;;15.43;10.07;;;;;;;;;;3585967;40;20037;-60
2021/07/19 11:49:13;;;;;;;13.30;11.70;;;;;;;;;;3585130;40;20313;-59
2021/07/19 11:51:43;;;;;;;11.63;10.43;;;;;;;;;;3585680;40;20073;-60
2021/07/19 11:54:14;;;;;;;14.25;11.15;;;;;;;;;;3585791;40;20027;-60
2021/07/19 11:56:48;;;;;;;14.65;10.23;;;;;;;;;;3586064;40;20034;-61
2021/07/19 11:59:19;;;;;;;15.57;11.30;;;;;;;;;;3586124;40;20024;-60
2021/07/19 12:01:45;;;;;;;20.45;11.20;;;;;;;;;;3585411;40;20033;-61
2021/07/19 12:04:10;;;;;;;13.40;10.38;;;;;;;;;;3585887;40;20465;-61
2021/07/19 12:06:36;;;;;;;16.40;9.88;;;;;;;;;;3585537;40;20040;-61
2021/07/19 12:09:07;;;;;;;11.77;10.07;;;;;;;;;;3582551;40;20040;-61
2021/07/19 12:11:34;;;;;;;13.65;11.95;;;;;;;;;;3583413;40;20126;-61
2021/07/19 12:14:08;;;;;;;15.10;11.52;;;;;;;;;;3585491;40;20133;-60
2021/07/19 12:16:37;;;;;;;17.70;13.35;;;;;;;;;;3583996;40;20052;-61
2021/07/19 12:19:04;;;;;;;12.85;11.50;;;;;;;;;;3585094;40;20044;-60
2021/07/19 12:21:39;;;;;;;12.80;11.50;;;;;;;;;;3585282;40;20036;-60
2021/07/19 12:24:10;;;;;;;15.40;11.70;;;;;;;;;;3583933;40;20032;-60
2021/07/19 12:26:50;;;;;;;16.13;12.85;;;;;;;;;;3585858;40;20080;-60
2021/07/19 12:29:24;;;;;;;13.18;11.88;;;;;;;;;;3593617;39;20043;-60
2021/07/19 12:31:53;;;;;;;13.88;11.25;;;;;;;;;;3585765;40;20036;-60
2021/07/19 12:34:21;;;;;;;12.90;11.60;;;;;;;;;;3582698;40;20063;-59
2021/07/19 12:36:58;;;;;;;12.45;11.05;;;;;;;;;;3583219;40;20048;-60
2021/07/19 12:39:30;;;;;;;16.38;12.63;;;;;;;;;;3585016;40;20040;-61
2021/07/19 12:41:56;;;;;;;15.10;12.77;;;;;;;;;;3585328;40;20039;-59
2021/07/19 12:44:27;;;;;;;17.15;13.13;;;;;;;;;;3584877;40;20035;-60
2021/07/19 12:46:54;;;;;;;15.98;13.07;;;;;;;;;;3584078;40;20032;-60
2021/07/19 12:49:28;;;;;;;14.50;12.80;;;;;;;;;;3586430;40;20259;-59
2021/07/19 12:52:12;;;;;;;19.35;13.75;;;;;;;;;;3581997;40;20109;-59
2021/07/19 12:54:39;;;;;;;13.85;12.55;;;;;;;;;;3581419;40;20032;-61
2021/07/19 12:57:04;;;;;;;16.60;13.25;;;;;;;;;;3585599;40;20037;-61
2021/07/19 12:59:30;;;;;;;17.60;13.30;;;;;;;;;;3583804;40;20346;-60
2021/07/19 13:01:58;;;;;;;16.17;13.15;;;;;;;;;;3584365;40;20182;-59
2021/07/19 13:04:24;;;;;;;16.42;13.10;;;;;;;;;;3583884;40;20046;-61
2021/07/19 13:06:50;;;;;;;18.70;13.32;;;;;;;;;;3584857;40;20363;-61
2021/07/19 13:09:30;;;;;;;14.98;13.48;;;;;;;;;;3583520;40;20134;-61
2021/07/19 13:12:07;;;;;;;17.50;14.40;;;;;;;;;;3584631;40;20033;-61
2021/07/19 13:14:43;;;;;;;14.70;13.13;;;;;;;;;;3585117;40;20067;-61
2021/07/19 13:17:17;;;;;;;14.88;13.13;;;;;;;;;;3585328;40;20045;-61
2021/07/19 13:19:50;;;;;;;16.80;14.27;;;;;;;;;;3584731;40;20036;-61
2021/07/19 13:22:16;;;;;;;17.20;14.27;;;;;;;;;;3585892;40;20072;-59
2021/07/19 13:24:47;;;;;;;15.82;14.32;;;;;;;;;;3583905;40;20048;-60
2021/07/19 13:27:15;;;;;;;15.95;13.02;;;;;;;;;;3584216;40;20032;-59
2021/07/19 13:29:50;;;;;;;15.95;14.35;;;;;;;;;;3585048;40;20154;-60
2021/07/19 13:32:21;;;;;;;18.40;13.95;;;;;;;;;;3584746;40;20028;-59
2021/07/19 13:35:05;;;;;;;16.65;14.50;;;;;;;;;;3584990;40;20068;-60
2021/07/19 13:37:33;;;;;;;15.70;14.07;;;;;;;;;;3584999;40;20066;-60
2021/07/19 13:40:11;;;;;;;17.35;15.60;;;;;;;;;;3585378;40;20029;-61
2021/07/19 13:42:37;;;;;;;17.23;14.95;;;;;;;;;;3585961;40;20044;-61
2021/07/19 13:45:07;;;;;;;16.30;14.60;;;;;;;;;;3584872;40;20041;-61
2021/07/19 13:47:32;;;;;;;17.38;15.38;;;;;;;;;;3584218;40;20067;-61
2021/07/19 13:49:58;;;;;;;19.42;16.38;;;;;;;;;;3584974;40;20088;-61
2021/07/19 13:52:23;;;;;;;16.67;14.90;;;;;;;;;;3585130;40;20067;-60
2021/07/19 13:54:49;;;;;;;20.13;16.02;;;;;;;;;;3585970;40;20033;-60
2021/07/19 13:57:14;;;;;;;16.65;14.93;;;;;;;;;;3584964;40;20036;-60
2021/07/19 13:59:39;;;;;;;18.42;16.35;;;;;;;;;;3584470;40;20044;-60
2021/07/19 14:02:06;;;;;;;19.65;14.15;;;;;;;;;;3584374;40;20036;-60
2021/07/19 14:04:32;;;;;;;17.65;15.77;;;;;;;;;;3585488;40;20031;-60
2021/07/19 14:06:58;;;;;;;15.90;14.30;;;;;;;;;;3585091;40;20069;-61
2021/07/19 14:09:24;;;;;;;20.00;16.75;;;;;;;;;;3584687;40;20032;-60
2021/07/19 14:11:50;;;;;;;19.73;15.82;;;;;;;;;;3582288;40;20037;-60
2021/07/19 14:14:15;;;;;;;20.52;15.63;;;;;;;;;;3583608;40;20037;-60
2021/07/19 14:16:42;;;;;;;20.88;16.25;;;;;;;;;;3585648;40;20033;-59
2021/07/19 14:19:09;;;;;;;18.15;16.30;;;;;;;;;;3584997;40;20315;-59
2021/07/19 14:21:35;;;;;;;20.10;16.00;;;;;;;;;;3584502;40;20075;-59
2021/07/19 14:24:03;;;;;;;17.85;15.95;;;;;;;;;;3585519;40;20427;-59
2021/07/19 14:26:31;;;;;;;18.48;16.60;;;;;;;;;;3585043;40;20388;-59
2021/07/19 14:28:57;;;;;;;18.08;15.77;;;;;;;;;;3584472;40;20036;-60
2021/07/19 14:31:26;;;;;;;17.17;15.40;;;;;;;;;;3583814;40;20033;-59
2021/07/19 14:33:52;;;;;;;18.98;17.02;;;;;;;;;;3584563;40;20110;-60
2021/07/19 14:36:19;;;;;;;18.92;16.92;;;;;;;;;;3586723;40;20050;-59
2021/07/19 14:38:44;;;;;;;19.30;17.05;;;;;;;;;;3586570;40;20189;-60
2021/07/19 14:41:10;;;;;;;17.38;15.68;;;;;;;;;;3586758;40;20352;-60